Nobility — D5AX9 — position and weather

sailwx.info

Track history (hours):
 
Tides and Currents Weather Stations Pressure Air Temp Water Temp Dewpoint Dewpoint Depression Visibility Wind Speed Wind Dir Waves Ship Positions

Nobility

Last reported at 2018-Feb-24 19:30 UTC. Time now 2018-Feb-24 19:43 UTC.
Position N 33°60' E 130°03'.

Length 146 m; draft 7 m.

Type: Ship (hazmat cat A). MMSI: 636015465.

Date/timePositionNaut miles runAvg speedWind from/ knotsBaromVisibWave heightAir tempDewpointWater temp
2018-Feb-24 19:30N 33°60' E 130°03'816.0
2018-Feb-24 19:00N 34°07' E 129°58'815.8
2018-Feb-24 18:30N 34°14' E 129°53'815.8
2018-Feb-24 18:00N 34°20' E 129°48'16 0.5
2018-Feb-23 13:08N 34°28' E 130°05'212.8
2018-Feb-23 13:00N 34°27' E 130°07'713.1
2018-Feb-23 12:30N 34°23' E 130°13'713.2
2018-Feb-23 12:01N 34°19' E 130°20'713.3
2018-Feb-23 11:30N 34°16' E 130°27'713.4
2018-Feb-23 11:00N 34°11' E 130°33'713.8
2018-Feb-23 10:30N 34°08' E 130°40'713.7
2018-Feb-23 10:00N 34°03' E 130°47'612.5
2018-Feb-23 09:30N 33°58' E 130°50'510.5
2018-Feb-23 09:00N 33°55' E 130°56'510.3
2018-Feb-23 08:30N 33°59' E 131°00'612.0
2018-Feb-23 08:00N 33°55' E 131°06'612.8
2018-Feb-23 07:30N 33°52' E 131°13'613.0
2018-Feb-23 07:00N 33°51' E 131°20'612.7
2018-Feb-23 06:30N 33°49' E 131°28'612.4
2018-Feb-23 06:00N 33°48' E 131°35'612.6
2018-Feb-23 05:30N 33°47' E 131°43'713.0
2018-Feb-23 05:00N 33°45' E 131°50'713.2
2018-Feb-23 04:30N 33°44' E 131°58'913.0
2018-Feb-23 03:47N 33°42' E 132°09'413.2
2018-Feb-23 03:30N 33°44' E 132°13'913.1
2018-Feb-23 02:48N 33°46' E 132°24'412.8
2018-Feb-23 02:29N 33°48' E 132°28'613.6
2018-Feb-23 02:00N 33°52' E 132°35'713.6
2018-Feb-23 01:30N 33°56' E 132°41'7512.2
2018-Feb-22 19:19N 34°27' E 134°04'413.7
2018-Feb-22 19:00N 34°26' E 134°09'612.9
2018-Feb-22 18:30N 34°24' E 134°16'713.3
2018-Feb-22 18:00N 34°25' E 134°24'713.8
2018-Feb-22 17:30N 34°28' E 134°32'714.0
2018-Feb-22 17:00N 34°31' E 134°40'714.6
2018-Feb-22 16:31N 34°34' E 134°48'815.7
2018-Feb-22 16:01N 34°37' E 134°57'714.3
2018-Feb-22 15:30N 34°35' E 135°05'714.0
2018-Feb-22 15:00N 34°37' E 135°14'611.3
2018-Feb-22 14:30N 34°41' E 135°18'1 2.1
2018-Feb-22 14:00N 34°41' E 135°17'0 0.0
2018-Feb-22 13:30N 34°41' E 135°17'0 0.0
2018-Feb-22 13:00N 34°41' E 135°17'0 0.0
2018-Feb-22 12:30N 34°41' E 135°17'0 0.0
2018-Feb-22 12:00N 34°41' E 135°17'0 0.0
2018-Feb-22 11:30N 34°41' E 135°17'0 0.0
2018-Feb-22 11:00N 34°41' E 135°17'0 0.0
2018-Feb-22 10:30N 34°41' E 135°17'0 0.0
2018-Feb-22 10:00N 34°41' E 135°17'0 0.0
2018-Feb-22 09:30N 34°41' E 135°17'0 0.1
2018-Feb-22 09:01N 34°41' E 135°17'3 6.7
2018-Feb-22 08:30N 34°38' E 135°18'714.3
2018-Feb-22 08:00N 34°32' E 135°14'815.3
2018-Feb-22 07:31N 34°26' E 135°08'815.5
2018-Feb-22 07:00N 34°21' E 135°01'714.2
2018-Feb-22 06:31N 34°14' E 134°59'714.8
2018-Feb-22 06:00N 34°07' E 134°60'714.4
2018-Feb-22 05:30N 33°59' E 134°59'714.6
2018-Feb-22 05:00N 33°52' E 134°59'714.4
2018-Feb-22 04:30N 33°46' E 135°04'715.2
2018-Feb-22 04:01N 33°41' E 135°10'814.5
2018-Feb-22 03:27N 33°34' E 135°17'5412.6
2018-Feb-21 23:09N 33°46' E 136°20'1614.8
2018-Feb-21 22:05N 33°57' E 136°34'415.8
2018-Feb-21 21:50N 33°60' E 136°38'816.4
2018-Feb-21 21:22N 34°05' E 136°44'2615.1
2018-Feb-21 19:39N 34°26' E 137°03'614.7
2018-Feb-21 19:14N 34°32' E 137°02'312.8
2018-Feb-21 19:00N 34°34' E 136°59'714.1
2018-Feb-21 18:30N 34°38' E 136°53'715.2
2018-Feb-21 18:00N 34°45' E 136°47'815.1
2018-Feb-21 17:30N 34°52' E 136°46'714.6
2018-Feb-21 17:00N 34°59' E 136°49'4 8.4
2018-Feb-21 16:30N 35°03' E 136°50'0 0.3
2018-Feb-21 15:59N 35°03' E 136°50'0 0.0
2018-Feb-21 15:29N 35°03' E 136°50'0 0.0
2018-Feb-21 14:59N 35°03' E 136°50'0 0.0
2018-Feb-21 14:29N 35°03' E 136°50'0 0.0
2018-Feb-21 13:59N 35°03' E 136°50'0 0.0
2018-Feb-21 13:29N 35°03' E 136°50'0 0.0
2018-Feb-21 12:59N 35°03' E 136°50'0 0.0
2018-Feb-21 12:29N 35°03' E 136°50'0 0.0
2018-Feb-21 11:59N 35°03' E 136°50'0 0.0
2018-Feb-21 11:29N 35°03' E 136°50'0 0.0
2018-Feb-21 10:59N 35°03' E 136°50'0 0.0
2018-Feb-21 10:29N 35°03' E 136°50'0 0.0
2018-Feb-21 09:59N 35°03' E 136°50'0 0.0
2018-Feb-21 09:29N 35°03' E 136°50'0 0.0
2018-Feb-21 08:59N 35°03' E 136°50'0 0.0
2018-Feb-21 08:29N 35°03' E 136°50'0 0.0
2018-Feb-21 08:00N 35°03' E 136°50'2 4.5
2018-Feb-21 07:30N 35°01' E 136°50'510.2
2018-Feb-21 07:00N 34°58' E 136°45'0 0.1
2018-Feb-21 06:30N 34°58' E 136°45'0 0.1
2018-Feb-21 06:00N 34°58' E 136°45'0 0.0
2018-Feb-21 05:30N 34°58' E 136°45'0 0.0
2018-Feb-21 05:00N 34°58' E 136°45'0 0.0
2018-Feb-21 04:30N 34°58' E 136°45'0 0.0
2018-Feb-21 04:00N 34°58' E 136°45'0 0.0
2018-Feb-21 03:30N 34°58' E 136°45'0 0.0
2018-Feb-21 03:00N 34°58' E 136°45'0 0.0
2018-Feb-21 02:30N 34°58' E 136°45'0 0.0
2018-Feb-21 02:00N 34°58' E 136°45'0 0.0
2018-Feb-21 01:30N 34°58' E 136°45'0 0.0
2018-Feb-21 01:00N 34°58' E 136°45'0 0.1
2018-Feb-21 00:30N 34°58' E 136°45'0 0.0
2018-Feb-21 00:00N 34°58' E 136°45'0 0.1
2018-Feb-20 23:30N 34°58' E 136°45'0 0.0
2018-Feb-20 23:00N 34°58' E 136°45'0 0.0
2018-Feb-20 22:30N 34°58' E 136°45'0 0.0
2018-Feb-20 22:00N 34°58' E 136°45'0 0.0
2018-Feb-20 21:30N 34°58' E 136°45'0 0.0
2018-Feb-20 20:54N 34°58' E 136°45'0 0.0
2018-Feb-20 20:30N 34°58' E 136°45'0 0.1
2018-Feb-20 20:00N 34°58' E 136°45'0 0.0
2018-Feb-20 19:30N 34°58' E 136°45'0 0.0
2018-Feb-20 19:00N 34°58' E 136°45'0 0.0
2018-Feb-20 18:30N 34°58' E 136°45'0 0.1
2018-Feb-20 18:00N 34°58' E 136°45'0 0.0
2018-Feb-20 17:30N 34°58' E 136°45'0 0.2
2018-Feb-20 17:00N 34°58' E 136°45'4 7.4
2018-Feb-20 16:31N 34°54' E 136°47'612.2
2018-Feb-20 16:00N 34°48' E 136°47'612.6
2018-Feb-20 15:31N 34°43' E 136°51'712.6
2018-Feb-20 14:59N 34°38' E 136°56'612.7
2018-Feb-20 14:31N 34°33' E 137°01'611.7
2018-Feb-20 14:00N 34°28' E 137°04'2412.2
2018-Feb-20 12:02N 34°08' E 136°49'112.4
2018-Feb-20 11:58N 34°07' E 136°48'612.7
2018-Feb-20 11:30N 34°03' E 136°43'3714.8
2018-Feb-20 08:59N 33°39' E 136°09'5411.4
2018-Feb-20 04:15N 33°46' E 135°05'414.5
2018-Feb-20 04:01N 33°49' E 135°02'713.5
2018-Feb-20 03:30N 33°55' E 134°59'714.5
2018-Feb-20 03:01N 34°02' E 134°59'714.1
2018-Feb-20 02:31N 34°09' E 134°59'713.5
2018-Feb-20 02:00N 34°16' E 134°58'612.5
2018-Feb-20 01:30N 34°22' E 134°60'713.5
2018-Feb-20 01:00N 34°28' E 135°02'612.9
2018-Feb-20 00:30N 34°35' E 135°03'5 9.5
2018-Feb-20 00:00N 34°36' E 134°58'713.1
2018-Feb-19 23:30N 34°33' E 134°51'713.7
2018-Feb-19 23:00N 34°31' E 134°43'713.9
2018-Feb-19 22:30N 34°29' E 134°35'714.0
2018-Feb-19 22:00N 34°26' E 134°27'714.1
2018-Feb-19 21:30N 34°23' E 134°19'714.6
2018-Feb-19 21:00N 34°25' E 134°10'2511.4
2018-Feb-19 18:50N 34°18' E 133°41'3712.8
2018-Feb-19 15:57N 34°09' E 132°58'812.0
2018-Feb-19 15:17N 34°05' E 132°50'415.2
2018-Feb-19 15:00N 34°01' E 132°47'815.3
2018-Feb-19 14:30N 33°56' E 132°41'814.8
2018-Feb-19 13:57N 33°50' E 132°34'614.2
2018-Feb-19 13:30N 33°47' E 132°27'814.7
2018-Feb-19 12:58N 33°44' E 132°18'1813.9
2018-Feb-19 11:42N 33°43' E 131°57'313.7
2018-Feb-19 11:28N 33°44' E 131°53'613.7
2018-Feb-19 11:00N 33°45' E 131°46'713.2
2018-Feb-19 10:30N 33°46' E 131°38'713.6
2018-Feb-19 10:00N 33°48' E 131°30'713.6
2018-Feb-19 09:30N 33°49' E 131°22'713.9
2018-Feb-19 09:00N 33°51' E 131°14'714.1
2018-Feb-19 08:31N 33°54' E 131°07'714.2
2018-Feb-19 08:01N 33°59' E 130°60'613.0
2018-Feb-19 07:31N 33°54' E 130°54'713.5
2018-Feb-19 07:01N 34°01' E 130°50'612.8
2018-Feb-19 06:30N 34°02' E 130°43'714.0
2018-Feb-19 06:00N 33°60' E 130°35'714.3
2018-Feb-19 05:30N 33°57' E 130°27'714.1
2018-Feb-19 05:00N 33°52' E 130°21'713.9
2018-Feb-19 04:31N 33°46' E 130°17'612.1
2018-Feb-19 04:00N 33°40' E 130°17'612.5
2018-Feb-19 03:30N 33°39' E 130°24'0 0.4
2018-Feb-19 03:00N 33°39' E 130°24'0 0.0
2018-Feb-19 02:30N 33°39' E 130°24'0 0.0
2018-Feb-19 02:00N 33°39' E 130°24'0 0.0
2018-Feb-19 01:30N 33°39' E 130°24'0 0.0
2018-Feb-19 01:00N 33°39' E 130°24'0 0.0
2018-Feb-19 00:30N 33°39' E 130°24'0 0.0
2018-Feb-19 00:00N 33°39' E 130°24'0 0.0
2018-Feb-18 23:30N 33°39' E 130°24'0 0.0
2018-Feb-18 23:00N 33°39' E 130°24'0 0.7
2018-Feb-18 22:30N 33°39' E 130°24'4 8.8
2018-Feb-18 22:00N 33°39' E 130°19'3 4.6
2018-Feb-18 21:25N 33°39' E 130°16'0 0.1
2018-Feb-18 20:55N 33°39' E 130°16'0 0.0
2018-Feb-18 20:25N 33°39' E 130°16'0 0.0
2018-Feb-18 19:55N 33°39' E 130°16'0 0.1
2018-Feb-18 19:25N 33°39' E 130°16'0 0.0
2018-Feb-18 18:55N 33°39' E 130°16'0 0.1
2018-Feb-18 18:28N 33°39' E 130°16'0 0.1
2018-Feb-18 17:58N 33°39' E 130°16'0 0.0
2018-Feb-18 17:28N 33°39' E 130°16'0 0.0
2018-Feb-18 16:55N 33°39' E 130°16'0 0.0
2018-Feb-18 16:25N 33°39' E 130°16'0 0.1
2018-Feb-18 15:55N 33°39' E 130°16'0 0.1
2018-Feb-18 15:28N 33°39' E 130°16'0 0.1
2018-Feb-18 14:55N 33°39' E 130°16'0 0.1
2018-Feb-18 14:28N 33°39' E 130°16'0 0.0
2018-Feb-18 13:55N 33°39' E 130°16'0 0.1
2018-Feb-18 13:25N 33°39' E 130°16'0 0.1
2018-Feb-18 12:55N 33°39' E 130°16'0 0.1
2018-Feb-18 12:28N 33°39' E 130°16'0 0.0
2018-Feb-18 11:55N 33°39' E 130°16'0 0.0
2018-Feb-18 11:25N 33°39' E 130°16'0 0.0
2018-Feb-18 10:55N 33°39' E 130°16'0 0.0
2018-Feb-18 10:25N 33°39' E 130°16'0 0.0
2018-Feb-18 09:55N 33°39' E 130°16'0 0.0
2018-Feb-18 09:28N 33°39' E 130°16'0 1.0
2018-Feb-18 09:00N 33°39' E 130°16'612.2
2018-Feb-18 08:31N 33°45' E 130°13'713.8
2018-Feb-18 08:00N 33°51' E 130°09'714.1
2018-Feb-18 07:31N 33°57' E 130°05'713.9
2018-Feb-18 07:00N 34°03' E 130°00'1613.5
2018-Feb-18 05:49N 34°17' E 129°51'4 0.1
2018-Feb-17 01:35N 34°20' E 129°48'513.2
2018-Feb-17 01:12N 34°16' E 129°51'413.0
2018-Feb-17 00:51N 34°12' E 129°55'512.9
2018-Feb-17 00:28N 34°08' E 129°58'612.7
2018-Feb-17 00:00N 34°02' E 130°01'612.5
2018-Feb-16 23:30N 33°57' E 130°04'612.1
2018-Feb-16 23:01N 33°52' E 130°08'611.8
2018-Feb-16 22:30N 33°47' E 130°12'612.6
2018-Feb-16 22:00N 33°41' E 130°15'612.0
2018-Feb-16 21:30N 33°38' E 130°21'3 4.9
2018-Feb-16 20:57N 33°39' E 130°24'0 0.0
2018-Feb-16 20:30N 33°39' E 130°24'0 0.0
2018-Feb-16 19:57N 33°39' E 130°24'0 0.0
2018-Feb-16 19:30N 33°39' E 130°24'0 0.0
2018-Feb-16 18:57N 33°39' E 130°24'0 0.0
2018-Feb-16 18:30N 33°39' E 130°24'0 0.0
2018-Feb-16 17:57N 33°39' E 130°24'0 0.0
2018-Feb-16 17:27N 33°39' E 130°24'0 0.0
2018-Feb-16 17:00N 33°39' E 130°24'0 0.0
2018-Feb-16 16:21N 33°39' E 130°24'0 0.0
2018-Feb-16 16:00N 33°39' E 130°24'0 0.0
2018-Feb-16 15:27N 33°39' E 130°24'0 0.0
2018-Feb-16 15:00N 33°39' E 130°24'0 0.0
2018-Feb-16 14:30N 33°39' E 130°24'0 0.0
2018-Feb-16 13:57N 33°39' E 130°24'0 0.0
2018-Feb-16 13:30N 33°39' E 130°24'0 0.3
2018-Feb-16 13:00N 33°39' E 130°24'4 8.2
2018-Feb-16 12:30N 33°39' E 130°19'510.2
2018-Feb-16 12:00N 33°42' E 130°15'713.8
2018-Feb-16 11:30N 33°48' E 130°19'714.6
2018-Feb-16 11:00N 33°55' E 130°23'714.4
2018-Feb-16 10:31N 33°58' E 130°31'815.2
2018-Feb-16 10:00N 34°01' E 130°40'714.7
2018-Feb-16 09:30N 34°02' E 130°48'713.5
2018-Feb-16 09:00N 33°56' E 130°52'4 8.5
2018-Feb-16 08:30N 33°58' E 130°57'611.2
2018-Feb-16 08:00N 33°56' E 131°04'815.6
2018-Feb-16 07:30N 33°52' E 131°12'815.3
2018-Feb-16 07:00N 33°51' E 131°21'714.9
2018-Feb-16 06:30N 33°49' E 131°30'714.6
2018-Feb-16 06:00N 33°47' E 131°38'714.1
2018-Feb-16 05:30N 33°46' E 131°46'714.1
2018-Feb-16 05:00N 33°44' E 131°55'1114.7
2018-Feb-16 04:13N 33°42' E 132°08'416.0
2018-Feb-16 04:00N 33°43' E 132°12'915.8
2018-Feb-16 03:27N 33°46' E 132°22'715.7
2018-Feb-16 03:00N 33°49' E 132°30'815.3
2018-Feb-16 02:31N 33°54' E 132°37'713.9
2018-Feb-16 02:00N 33°59' E 132°43'713.6
2018-Feb-16 01:28N 34°04' E 132°49'714.0
2018-Feb-16 00:58N 34°09' E 132°54'5 9.7
2018-Feb-16 00:25N 34°06' E 132°60'511.3
2018-Feb-15 23:58N 34°06' E 133°06'613.6
2018-Feb-15 23:30N 34°11' E 133°11'713.3
2018-Feb-15 23:00N 34°14' E 133°19'4013.4
2018-Feb-15 20:01N 34°27' E 134°04'112.7
2018-Feb-15 19:59N 34°27' E 134°05'714.0
2018-Feb-15 19:30N 34°25' E 134°12'713.9
2018-Feb-15 19:00N 34°25' E 134°21'714.7
2018-Feb-15 18:31N 34°27' E 134°29'714.5
2018-Feb-15 18:01N 34°30' E 134°37'713.8
2018-Feb-15 17:30N 34°33' E 134°45'612.5
2018-Feb-15 17:00N 34°35' E 134°52'611.5
2018-Feb-15 16:30N 34°37' E 134°58'510.3
2018-Feb-15 16:00N 34°36' E 135°04'713.6
2018-Feb-15 15:31N 34°36' E 135°12'612.3
2018-Feb-15 15:00N 34°40' E 135°18'2 3.0
2018-Feb-15 14:28N 34°41' E 135°17'0 0.1
2018-Feb-15 13:58N 34°41' E 135°17'0 0.0
2018-Feb-15 13:28N 34°41' E 135°17'0 0.0
2018-Feb-15 12:58N 34°41' E 135°17'0 0.0
2018-Feb-15 12:28N 34°41' E 135°17'0 0.0
2018-Feb-15 11:58N 34°41' E 135°17'0 0.0
2018-Feb-15 11:28N 34°41' E 135°17'0 0.0
2018-Feb-15 10:58N 34°41' E 135°17'0 0.0
2018-Feb-15 10:28N 34°41' E 135°17'0 0.0
2018-Feb-15 09:58N 34°41' E 135°17'0 0.0
2018-Feb-15 09:28N 34°41' E 135°17'0 0.0
2018-Feb-15 09:00N 34°41' E 135°17'4 7.2
2018-Feb-15 08:30N 34°38' E 135°18'715.0
2018-Feb-15 08:01N 34°31' E 135°14'815.3
2018-Feb-15 07:30N 34°25' E 135°08'714.9
2018-Feb-15 07:00N 34°21' E 135°01'714.1
2018-Feb-15 06:30N 34°14' E 134°59'815.0
2018-Feb-15 06:00N 34°06' E 134°59'714.6
2018-Feb-15 05:30N 33°59' E 134°59'714.9
2018-Feb-15 05:00N 33°52' E 134°60'815.1
2018-Feb-15 04:30N 33°46' E 135°05'815.6
2018-Feb-15 03:59N 33°40' E 135°11'1414.9
2018-Feb-15 03:04N 33°30' E 135°24'4813.4
2018-Feb-14 23:30N 33°45' E 136°19'1015.9
2018-Feb-14 22:52N 33°51' E 136°28'616.3
2018-Feb-14 22:30N 33°55' E 136°33'916.3
2018-Feb-14 21:57N 34°01' E 136°41'715.5
2018-Feb-14 21:30N 34°06' E 136°47'1415.4
2018-Feb-14 20:35N 34°16' E 136°59'415.5
2018-Feb-14 20:21N 34°19' E 137°02'515.4
2018-Feb-14 20:00N 34°24' E 137°03'  
Track history (hours):
 
Tides and Currents Weather Stations Pressure Air Temp Water Temp Dewpoint Dewpoint Depression Visibility Wind Speed Wind Dir Waves Ship Positions

Nobility

Last reported at 2018-Feb-24 19:30 UTC. Time now 2018-Feb-24 19:43 UTC.
Position N 33°60' E 130°03'.

Length 146 m; draft 7 m.

Type: Ship (hazmat cat A). MMSI: 636015465.

Date/timePositionNaut miles runAvg speedWind from/ knotsBaromVisibWave heightAir tempDewpointWater temp
2018-Feb-24 19:30N 33°60' E 130°03'816.0
2018-Feb-24 19:00N 34°07' E 129°58'815.8
2018-Feb-24 18:30N 34°14' E 129°53'815.8
2018-Feb-24 18:00N 34°20' E 129°48'16 0.5
2018-Feb-23 13:08N 34°28' E 130°05'212.8
2018-Feb-23 13:00N 34°27' E 130°07'713.1
2018-Feb-23 12:30N 34°23' E 130°13'713.2
2018-Feb-23 12:01N 34°19' E 130°20'713.3
2018-Feb-23 11:30N 34°16' E 130°27'713.4
2018-Feb-23 11:00N 34°11' E 130°33'713.8
2018-Feb-23 10:30N 34°08' E 130°40'713.7
2018-Feb-23 10:00N 34°03' E 130°47'612.5
2018-Feb-23 09:30N 33°58' E 130°50'510.5
2018-Feb-23 09:00N 33°55' E 130°56'510.3
2018-Feb-23 08:30N 33°59' E 131°00'612.0
2018-Feb-23 08:00N 33°55' E 131°06'612.8
2018-Feb-23 07:30N 33°52' E 131°13'613.0
2018-Feb-23 07:00N 33°51' E 131°20'612.7
2018-Feb-23 06:30N 33°49' E 131°28'612.4
2018-Feb-23 06:00N 33°48' E 131°35'612.6
2018-Feb-23 05:30N 33°47' E 131°43'713.0
2018-Feb-23 05:00N 33°45' E 131°50'713.2
2018-Feb-23 04:30N 33°44' E 131°58'913.0
2018-Feb-23 03:47N 33°42' E 132°09'413.2
2018-Feb-23 03:30N 33°44' E 132°13'913.1
2018-Feb-23 02:48N 33°46' E 132°24'412.8
2018-Feb-23 02:29N 33°48' E 132°28'613.6
2018-Feb-23 02:00N 33°52' E 132°35'713.6
2018-Feb-23 01:30N 33°56' E 132°41'7512.2
2018-Feb-22 19:19N 34°27' E 134°04'413.7
2018-Feb-22 19:00N 34°26' E 134°09'612.9
2018-Feb-22 18:30N 34°24' E 134°16'713.3
2018-Feb-22 18:00N 34°25' E 134°24'713.8
2018-Feb-22 17:30N 34°28' E 134°32'714.0
2018-Feb-22 17:00N 34°31' E 134°40'714.6
2018-Feb-22 16:31N 34°34' E 134°48'815.7
2018-Feb-22 16:01N 34°37' E 134°57'714.3
2018-Feb-22 15:30N 34°35' E 135°05'714.0
2018-Feb-22 15:00N 34°37' E 135°14'611.3
2018-Feb-22 14:30N 34°41' E 135°18'1 2.1
2018-Feb-22 14:00N 34°41' E 135°17'0 0.0
2018-Feb-22 13:30N 34°41' E 135°17'0 0.0
2018-Feb-22 13:00N 34°41' E 135°17'0 0.0
2018-Feb-22 12:30N 34°41' E 135°17'0 0.0
2018-Feb-22 12:00N 34°41' E 135°17'0 0.0
2018-Feb-22 11:30N 34°41' E 135°17'0 0.0
2018-Feb-22 11:00N 34°41' E 135°17'0 0.0
2018-Feb-22 10:30N 34°41' E 135°17'0 0.0
2018-Feb-22 10:00N 34°41' E 135°17'0 0.0
2018-Feb-22 09:30N 34°41' E 135°17'0 0.1
2018-Feb-22 09:01N 34°41' E 135°17'3 6.7
2018-Feb-22 08:30N 34°38' E 135°18'714.3
2018-Feb-22 08:00N 34°32' E 135°14'815.3
2018-Feb-22 07:31N 34°26' E 135°08'815.5
2018-Feb-22 07:00N 34°21' E 135°01'714.2
2018-Feb-22 06:31N 34°14' E 134°59'714.8
2018-Feb-22 06:00N 34°07' E 134°60'714.4
2018-Feb-22 05:30N 33°59' E 134°59'714.6
2018-Feb-22 05:00N 33°52' E 134°59'714.4
2018-Feb-22 04:30N 33°46' E 135°04'715.2
2018-Feb-22 04:01N 33°41' E 135°10'814.5
2018-Feb-22 03:27N 33°34' E 135°17'5412.6
2018-Feb-21 23:09N 33°46' E 136°20'1614.8
2018-Feb-21 22:05N 33°57' E 136°34'415.8
2018-Feb-21 21:50N 33°60' E 136°38'816.4
2018-Feb-21 21:22N 34°05' E 136°44'2615.1
2018-Feb-21 19:39N 34°26' E 137°03'614.7
2018-Feb-21 19:14N 34°32' E 137°02'312.8
2018-Feb-21 19:00N 34°34' E 136°59'714.1
2018-Feb-21 18:30N 34°38' E 136°53'715.2
2018-Feb-21 18:00N 34°45' E 136°47'815.1
2018-Feb-21 17:30N 34°52' E 136°46'714.6
2018-Feb-21 17:00N 34°59' E 136°49'4 8.4
2018-Feb-21 16:30N 35°03' E 136°50'0 0.3
2018-Feb-21 15:59N 35°03' E 136°50'0 0.0
2018-Feb-21 15:29N 35°03' E 136°50'0 0.0
2018-Feb-21 14:59N 35°03' E 136°50'0 0.0
2018-Feb-21 14:29N 35°03' E 136°50'0 0.0
2018-Feb-21 13:59N 35°03' E 136°50'0 0.0
2018-Feb-21 13:29N 35°03' E 136°50'0 0.0
2018-Feb-21 12:59N 35°03' E 136°50'0 0.0
2018-Feb-21 12:29N 35°03' E 136°50'0 0.0
2018-Feb-21 11:59N 35°03' E 136°50'0 0.0
2018-Feb-21 11:29N 35°03' E 136°50'0 0.0
2018-Feb-21 10:59N 35°03' E 136°50'0 0.0
2018-Feb-21 10:29N 35°03' E 136°50'0 0.0
2018-Feb-21 09:59N 35°03' E 136°50'0 0.0
2018-Feb-21 09:29N 35°03' E 136°50'0 0.0
2018-Feb-21 08:59N 35°03' E 136°50'0 0.0
2018-Feb-21 08:29N 35°03' E 136°50'0 0.0
2018-Feb-21 08:00N 35°03' E 136°50'2 4.5
2018-Feb-21 07:30N 35°01' E 136°50'510.2
2018-Feb-21 07:00N 34°58' E 136°45'0 0.1
2018-Feb-21 06:30N 34°58' E 136°45'0 0.1
2018-Feb-21 06:00N 34°58' E 136°45'0 0.0
2018-Feb-21 05:30N 34°58' E 136°45'0 0.0
2018-Feb-21 05:00N 34°58' E 136°45'0 0.0
2018-Feb-21 04:30N 34°58' E 136°45'0 0.0
2018-Feb-21 04:00N 34°58' E 136°45'0 0.0
2018-Feb-21 03:30N 34°58' E 136°45'0 0.0
2018-Feb-21 03:00N 34°58' E 136°45'0 0.0
2018-Feb-21 02:30N 34°58' E 136°45'0 0.0
2018-Feb-21 02:00N 34°58' E 136°45'0 0.0
2018-Feb-21 01:30N 34°58' E 136°45'0 0.0
2018-Feb-21 01:00N 34°58' E 136°45'0 0.1
2018-Feb-21 00:30N 34°58' E 136°45'0 0.0
2018-Feb-21 00:00N 34°58' E 136°45'0 0.1
2018-Feb-20 23:30N 34°58' E 136°45'0 0.0
2018-Feb-20 23:00N 34°58' E 136°45'0 0.0
2018-Feb-20 22:30N 34°58' E 136°45'0 0.0
2018-Feb-20 22:00N 34°58' E 136°45'0 0.0
2018-Feb-20 21:30N 34°58' E 136°45'0 0.0
2018-Feb-20 20:54N 34°58' E 136°45'0 0.0
2018-Feb-20 20:30N 34°58' E 136°45'0 0.1
2018-Feb-20 20:00N 34°58' E 136°45'0 0.0
2018-Feb-20 19:30N 34°58' E 136°45'0 0.0
2018-Feb-20 19:00N 34°58' E 136°45'0 0.0
2018-Feb-20 18:30N 34°58' E 136°45'0 0.1
2018-Feb-20 18:00N 34°58' E 136°45'0 0.0
2018-Feb-20 17:30N 34°58' E 136°45'0 0.2
2018-Feb-20 17:00N 34°58' E 136°45'4 7.4
2018-Feb-20 16:31N 34°54' E 136°47'612.2
2018-Feb-20 16:00N 34°48' E 136°47'612.6
2018-Feb-20 15:31N 34°43' E 136°51'712.6
2018-Feb-20 14:59N 34°38' E 136°56'612.7
2018-Feb-20 14:31N 34°33' E 137°01'611.7
2018-Feb-20 14:00N 34°28' E 137°04'2412.2
2018-Feb-20 12:02N 34°08' E 136°49'112.4
2018-Feb-20 11:58N 34°07' E 136°48'612.7
2018-Feb-20 11:30N 34°03' E 136°43'3714.8
2018-Feb-20 08:59N 33°39' E 136°09'5411.4
2018-Feb-20 04:15N 33°46' E 135°05'414.5
2018-Feb-20 04:01N 33°49' E 135°02'713.5
2018-Feb-20 03:30N 33°55' E 134°59'714.5
2018-Feb-20 03:01N 34°02' E 134°59'714.1
2018-Feb-20 02:31N 34°09' E 134°59'713.5
2018-Feb-20 02:00N 34°16' E 134°58'612.5
2018-Feb-20 01:30N 34°22' E 134°60'713.5
2018-Feb-20 01:00N 34°28' E 135°02'612.9
2018-Feb-20 00:30N 34°35' E 135°03'5 9.5
2018-Feb-20 00:00N 34°36' E 134°58'713.1
2018-Feb-19 23:30N 34°33' E 134°51'713.7
2018-Feb-19 23:00N 34°31' E 134°43'713.9
2018-Feb-19 22:30N 34°29' E 134°35'714.0
2018-Feb-19 22:00N 34°26' E 134°27'714.1
2018-Feb-19 21:30N 34°23' E 134°19'714.6
2018-Feb-19 21:00N 34°25' E 134°10'2511.4
2018-Feb-19 18:50N 34°18' E 133°41'3712.8
2018-Feb-19 15:57N 34°09' E 132°58'812.0
2018-Feb-19 15:17N 34°05' E 132°50'415.2
2018-Feb-19 15:00N 34°01' E 132°47'815.3
2018-Feb-19 14:30N 33°56' E 132°41'814.8
2018-Feb-19 13:57N 33°50' E 132°34'614.2
2018-Feb-19 13:30N 33°47' E 132°27'814.7
2018-Feb-19 12:58N 33°44' E 132°18'1813.9
2018-Feb-19 11:42N 33°43' E 131°57'313.7
2018-Feb-19 11:28N 33°44' E 131°53'613.7
2018-Feb-19 11:00N 33°45' E 131°46'713.2
2018-Feb-19 10:30N 33°46' E 131°38'713.6
2018-Feb-19 10:00N 33°48' E 131°30'713.6
2018-Feb-19 09:30N 33°49' E 131°22'713.9
2018-Feb-19 09:00N 33°51' E 131°14'714.1
2018-Feb-19 08:31N 33°54' E 131°07'714.2
2018-Feb-19 08:01N 33°59' E 130°60'613.0
2018-Feb-19 07:31N 33°54' E 130°54'713.5
2018-Feb-19 07:01N 34°01' E 130°50'612.8
2018-Feb-19 06:30N 34°02' E 130°43'714.0
2018-Feb-19 06:00N 33°60' E 130°35'714.3
2018-Feb-19 05:30N 33°57' E 130°27'714.1
2018-Feb-19 05:00N 33°52' E 130°21'713.9
2018-Feb-19 04:31N 33°46' E 130°17'612.1
2018-Feb-19 04:00N 33°40' E 130°17'612.5
2018-Feb-19 03:30N 33°39' E 130°24'0 0.4
2018-Feb-19 03:00N 33°39' E 130°24'0 0.0
2018-Feb-19 02:30N 33°39' E 130°24'0 0.0
2018-Feb-19 02:00N 33°39' E 130°24'0 0.0
2018-Feb-19 01:30N 33°39' E 130°24'0 0.0
2018-Feb-19 01:00N 33°39' E 130°24'0 0.0
2018-Feb-19 00:30N 33°39' E 130°24'0 0.0
2018-Feb-19 00:00N 33°39' E 130°24'0 0.0
2018-Feb-18 23:30N 33°39' E 130°24'0 0.0
2018-Feb-18 23:00N 33°39' E 130°24'0 0.7
2018-Feb-18 22:30N 33°39' E 130°24'4 8.8
2018-Feb-18 22:00N 33°39' E 130°19'3 4.6
2018-Feb-18 21:25N 33°39' E 130°16'0 0.1
2018-Feb-18 20:55N 33°39' E 130°16'0 0.0
2018-Feb-18 20:25N 33°39' E 130°16'0 0.0
2018-Feb-18 19:55N 33°39' E 130°16'0 0.1
2018-Feb-18 19:25N 33°39' E 130°16'0 0.0
2018-Feb-18 18:55N 33°39' E 130°16'0 0.1
2018-Feb-18 18:28N 33°39' E 130°16'0 0.1
2018-Feb-18 17:58N 33°39' E 130°16'0 0.0
2018-Feb-18 17:28N 33°39' E 130°16'0 0.0
2018-Feb-18 16:55N 33°39' E 130°16'0 0.0
2018-Feb-18 16:25N 33°39' E 130°16'0 0.1
2018-Feb-18 15:55N 33°39' E 130°16'0 0.1
2018-Feb-18 15:28N 33°39' E 130°16'0 0.1
2018-Feb-18 14:55N 33°39' E 130°16'0 0.1
2018-Feb-18 14:28N 33°39' E 130°16'0 0.0
2018-Feb-18 13:55N 33°39' E 130°16'0 0.1
2018-Feb-18 13:25N 33°39' E 130°16'0 0.1
2018-Feb-18 12:55N 33°39' E 130°16'0 0.1
2018-Feb-18 12:28N 33°39' E 130°16'0 0.0
2018-Feb-18 11:55N 33°39' E 130°16'0 0.0
2018-Feb-18 11:25N 33°39' E 130°16'0 0.0
2018-Feb-18 10:55N 33°39' E 130°16'0 0.0
2018-Feb-18 10:25N 33°39' E 130°16'0 0.0
2018-Feb-18 09:55N 33°39' E 130°16'0 0.0
2018-Feb-18 09:28N 33°39' E 130°16'0 1.0
2018-Feb-18 09:00N 33°39' E 130°16'612.2
2018-Feb-18 08:31N 33°45' E 130°13'713.8
2018-Feb-18 08:00N 33°51' E 130°09'714.1
2018-Feb-18 07:31N 33°57' E 130°05'713.9
2018-Feb-18 07:00N 34°03' E 130°00'1613.5
2018-Feb-18 05:49N 34°17' E 129°51'4 0.1
2018-Feb-17 01:35N 34°20' E 129°48'513.2
2018-Feb-17 01:12N 34°16' E 129°51'413.0
2018-Feb-17 00:51N 34°12' E 129°55'512.9
2018-Feb-17 00:28N 34°08' E 129°58'612.7
2018-Feb-17 00:00N 34°02' E 130°01'612.5
2018-Feb-16 23:30N 33°57' E 130°04'612.1
2018-Feb-16 23:01N 33°52' E 130°08'611.8
2018-Feb-16 22:30N 33°47' E 130°12'612.6
2018-Feb-16 22:00N 33°41' E 130°15'612.0
2018-Feb-16 21:30N 33°38' E 130°21'3 4.9
2018-Feb-16 20:57N 33°39' E 130°24'0 0.0
2018-Feb-16 20:30N 33°39' E 130°24'0 0.0
2018-Feb-16 19:57N 33°39' E 130°24'0 0.0
2018-Feb-16 19:30N 33°39' E 130°24'0 0.0
2018-Feb-16 18:57N 33°39' E 130°24'0 0.0
2018-Feb-16 18:30N 33°39' E 130°24'0 0.0
2018-Feb-16 17:57N 33°39' E 130°24'0 0.0
2018-Feb-16 17:27N 33°39' E 130°24'0 0.0
2018-Feb-16 17:00N 33°39' E 130°24'0 0.0
2018-Feb-16 16:21N 33°39' E 130°24'0 0.0
2018-Feb-16 16:00N 33°39' E 130°24'0 0.0
2018-Feb-16 15:27N 33°39' E 130°24'0 0.0
2018-Feb-16 15:00N 33°39' E 130°24'0 0.0
2018-Feb-16 14:30N 33°39' E 130°24'0 0.0
2018-Feb-16 13:57N 33°39' E 130°24'0 0.0
2018-Feb-16 13:30N 33°39' E 130°24'0 0.3
2018-Feb-16 13:00N 33°39' E 130°24'4 8.2
2018-Feb-16 12:30N 33°39' E 130°19'510.2
2018-Feb-16 12:00N 33°42' E 130°15'713.8
2018-Feb-16 11:30N 33°48' E 130°19'714.6
2018-Feb-16 11:00N 33°55' E 130°23'714.4
2018-Feb-16 10:31N 33°58' E 130°31'815.2
2018-Feb-16 10:00N 34°01' E 130°40'714.7
2018-Feb-16 09:30N 34°02' E 130°48'713.5
2018-Feb-16 09:00N 33°56' E 130°52'4 8.5
2018-Feb-16 08:30N 33°58' E 130°57'611.2
2018-Feb-16 08:00N 33°56' E 131°04'815.6
2018-Feb-16 07:30N 33°52' E 131°12'815.3
2018-Feb-16 07:00N 33°51' E 131°21'714.9
2018-Feb-16 06:30N 33°49' E 131°30'714.6
2018-Feb-16 06:00N 33°47' E 131°38'714.1
2018-Feb-16 05:30N 33°46' E 131°46'714.1
2018-Feb-16 05:00N 33°44' E 131°55'1114.7
2018-Feb-16 04:13N 33°42' E 132°08'416.0
2018-Feb-16 04:00N 33°43' E 132°12'915.8
2018-Feb-16 03:27N 33°46' E 132°22'715.7
2018-Feb-16 03:00N 33°49' E 132°30'815.3
2018-Feb-16 02:31N 33°54' E 132°37'713.9
2018-Feb-16 02:00N 33°59' E 132°43'713.6
2018-Feb-16 01:28N 34°04' E 132°49'714.0
2018-Feb-16 00:58N 34°09' E 132°54'5 9.7
2018-Feb-16 00:25N 34°06' E 132°60'511.3
2018-Feb-15 23:58N 34°06' E 133°06'613.6
2018-Feb-15 23:30N 34°11' E 133°11'713.3
2018-Feb-15 23:00N 34°14' E 133°19'4013.4
2018-Feb-15 20:01N 34°27' E 134°04'112.7
2018-Feb-15 19:59N 34°27' E 134°05'714.0
2018-Feb-15 19:30N 34°25' E 134°12'713.9
2018-Feb-15 19:00N 34°25' E 134°21'714.7
2018-Feb-15 18:31N 34°27' E 134°29'714.5
2018-Feb-15 18:01N 34°30' E 134°37'713.8
2018-Feb-15 17:30N 34°33' E 134°45'612.5
2018-Feb-15 17:00N 34°35' E 134°52'611.5
2018-Feb-15 16:30N 34°37' E 134°58'510.3
2018-Feb-15 16:00N 34°36' E 135°04'713.6
2018-Feb-15 15:31N 34°36' E 135°12'612.3
2018-Feb-15 15:00N 34°40' E 135°18'2 3.0
2018-Feb-15 14:28N 34°41' E 135°17'0 0.1
2018-Feb-15 13:58N 34°41' E 135°17'0 0.0
2018-Feb-15 13:28N 34°41' E 135°17'0 0.0
2018-Feb-15 12:58N 34°41' E 135°17'0 0.0
2018-Feb-15 12:28N 34°41' E 135°17'0 0.0
2018-Feb-15 11:58N 34°41' E 135°17'0 0.0
2018-Feb-15 11:28N 34°41' E 135°17'0 0.0
2018-Feb-15 10:58N 34°41' E 135°17'0 0.0
2018-Feb-15 10:28N 34°41' E 135°17'0 0.0
2018-Feb-15 09:58N 34°41' E 135°17'0 0.0
2018-Feb-15 09:28N 34°41' E 135°17'0 0.0
2018-Feb-15 09:00N 34°41' E 135°17'4 7.2
2018-Feb-15 08:30N 34°38' E 135°18'715.0
2018-Feb-15 08:01N 34°31' E 135°14'815.3
2018-Feb-15 07:30N 34°25' E 135°08'714.9
2018-Feb-15 07:00N 34°21' E 135°01'714.1
2018-Feb-15 06:30N 34°14' E 134°59'815.0
2018-Feb-15 06:00N 34°06' E 134°59'714.6
2018-Feb-15 05:30N 33°59' E 134°59'714.9
2018-Feb-15 05:00N 33°52' E 134°60'815.1
2018-Feb-15 04:30N 33°46' E 135°05'815.6
2018-Feb-15 03:59N 33°40' E 135°11'1414.9
2018-Feb-15 03:04N 33°30' E 135°24'4813.4
2018-Feb-14 23:30N 33°45' E 136°19'1015.9
2018-Feb-14 22:52N 33°51' E 136°28'616.3
2018-Feb-14 22:30N 33°55' E 136°33'916.3
2018-Feb-14 21:57N 34°01' E 136°41'715.5
2018-Feb-14 21:30N 34°06' E 136°47'1415.4
2018-Feb-14 20:35N 34°16' E 136°59'415.5
2018-Feb-14 20:21N 34°19' E 137°02'515.4
2018-Feb-14 20:00N 34°24' E 137°03'  

Dump ship's entire track history